sensor_id;sensor_type;location;lat;lon;timestamp;temperature;humidity
12233;DHT22;6179;51.748;8.728;2023-06-14T00:05:17;18.00;64.30
12233;DHT22;6179;51.748;8.728;2023-06-14T00:11:18;18.00;64.70
12233;DHT22;6179;51.748;8.728;2023-06-14T00:17:18;18.00;64.40
12233;DHT22;6179;51.748;8.728;2023-06-14T00:23:19;17.70;65.50
12233;DHT22;6179;51.748;8.728;2023-06-14T00:29:20;17.60;66.10
12233;DHT22;6179;51.748;8.728;2023-06-14T00:35:21;17.70;65.00
12233;DHT22;6179;51.748;8.728;2023-06-14T00:41:22;17.70;65.50
12233;DHT22;6179;51.748;8.728;2023-06-14T00:47:23;18.00;65.40
12233;DHT22;6179;51.748;8.728;2023-06-14T00:53:24;17.90;64.90
12233;DHT22;6179;51.748;8.728;2023-06-14T00:59:25;17.70;65.90
12233;DHT22;6179;51.748;8.728;2023-06-14T01:05:26;17.40;66.00
12233;DHT22;6179;51.748;8.728;2023-06-14T01:11:35;17.50;66.40
12233;DHT22;6179;51.748;8.728;2023-06-14T01:17:40;17.10;68.20
12233;DHT22;6179;51.748;8.728;2023-06-14T01:23:43;16.80;69.10
12233;DHT22;6179;51.748;8.728;2023-06-14T01:29:44;17.00;69.00
12233;DHT22;6179;51.748;8.728;2023-06-14T01:35:49;16.80;70.90
12233;DHT22;6179;51.748;8.728;2023-06-14T01:41:50;16.60;71.20
12233;DHT22;6179;51.748;8.728;2023-06-14T01:47:52;16.50;70.60
12233;DHT22;6179;51.748;8.728;2023-06-14T01:53:53;16.60;69.90
12233;DHT22;6179;51.748;8.728;2023-06-14T01:59:53;16.40;70.20
12233;DHT22;6179;51.748;8.728;2023-06-14T02:05:54;16.50;70.80
12233;DHT22;6179;51.748;8.728;2023-06-14T02:11:55;16.60;70.20
12233;DHT22;6179;51.748;8.728;2023-06-14T02:17:56;16.40;71.20
12233;DHT22;6179;51.748;8.728;2023-06-14T02:23:57;16.10;72.50
12233;DHT22;6179;51.748;8.728;2023-06-14T02:29:58;16.10;72.30
12233;DHT22;6179;51.748;8.728;2023-06-14T02:35:59;16.00;71.70
12233;DHT22;6179;51.748;8.728;2023-06-14T02:42:00;15.90;72.60
12233;DHT22;6179;51.748;8.728;2023-06-14T02:48:00;15.70;74.90
12233;DHT22;6179;51.748;8.728;2023-06-14T02:54:01;15.40;75.10
12233;DHT22;6179;51.748;8.728;2023-06-14T03:00:02;15.10;76.10
12233;DHT22;6179;51.748;8.728;2023-06-14T03:06:03;14.90;76.00
12233;DHT22;6179;51.748;8.728;2023-06-14T03:12:06;14.80;77.70
12233;DHT22;6179;51.748;8.728;2023-06-14T03:18:08;14.70;78.40
12233;DHT22;6179;51.748;8.728;2023-06-14T03:24:09;14.70;78.00
12233;DHT22;6179;51.748;8.728;2023-06-14T03:30:10;14.70;79.00
12233;DHT22;6179;51.748;8.728;2023-06-14T03:36:11;14.50;79.80
12233;DHT22;6179;51.748;8.728;2023-06-14T03:42:13;14.50;79.80
12233;DHT22;6179;51.748;8.728;2023-06-14T03:48:13;14.30;81.00
12233;DHT22;6179;51.748;8.728;2023-06-14T03:54:14;14.30;81.90
12233;DHT22;6179;51.748;8.728;2023-06-14T04:00:15;14.60;80.50
12233;DHT22;6179;51.748;8.728;2023-06-14T04:06:16;14.30;82.00
12233;DHT22;6179;51.748;8.728;2023-06-14T04:12:20;14.10;81.80
12233;DHT22;6179;51.748;8.728;2023-06-14T04:18:21;14.10;82.80
12233;DHT22;6179;51.748;8.728;2023-06-14T04:24:21;14.30;82.40
12233;DHT22;6179;51.748;8.728;2023-06-14T04:30:23;14.50;82.20
12233;DHT22;6179;51.748;8.728;2023-06-14T04:36:26;14.70;80.90
12233;DHT22;6179;51.748;8.728;2023-06-14T04:42:28;15.00;80.30
12233;DHT22;6179;51.748;8.728;2023-06-14T04:48:31;15.30;79.50
12233;DHT22;6179;51.748;8.728;2023-06-14T04:54:33;15.40;79.40
12233;DHT22;6179;51.748;8.728;2023-06-14T05:00:34;15.70;77.90
12233;DHT22;6179;51.748;8.728;2023-06-14T05:06:34;15.80;78.90
12233;DHT22;6179;51.748;8.728;2023-06-14T05:12:36;16.30;77.40
12233;DHT22;6179;51.748;8.728;2023-06-14T05:18:37;16.20;78.00
12233;DHT22;6179;51.748;8.728;2023-06-14T05:24:38;16.40;78.80
12233;DHT22;6179;51.748;8.728;2023-06-14T05:30:39;16.70;77.90
12233;DHT22;6179;51.748;8.728;2023-06-14T05:36:40;16.90;76.60
12233;DHT22;6179;51.748;8.728;2023-06-14T05:42:41;17.30;75.90
12233;DHT22;6179;51.748;8.728;2023-06-14T05:48:41;17.30;75.80
12233;DHT22;6179;51.748;8.728;2023-06-14T05:54:42;17.80;74.70
12233;DHT22;6179;51.748;8.728;2023-06-14T06:00:42;17.90;72.90
12233;DHT22;6179;51.748;8.728;2023-06-14T06:06:43;17.50;73.30
12233;DHT22;6179;51.748;8.728;2023-06-14T06:12:44;17.70;73.40
12233;DHT22;6179;51.748;8.728;2023-06-14T06:18:45;17.50;72.90
12233;DHT22;6179;51.748;8.728;2023-06-14T06:24:52;17.50;73.00
12233;DHT22;6179;51.748;8.728;2023-06-14T06:30:53;17.70;73.90
12233;DHT22;6179;51.748;8.728;2023-06-14T06:36:53;18.20;74.10
12233;DHT22;6179;51.748;8.728;2023-06-14T06:42:55;17.90;73.30
12233;DHT22;6179;51.748;8.728;2023-06-14T06:48:56;18.10;74.80
12233;DHT22;6179;51.748;8.728;2023-06-14T06:54:57;18.30;72.20
12233;DHT22;6179;51.748;8.728;2023-06-14T07:00:57;18.70;72.30
12233;DHT22;6179;51.748;8.728;2023-06-14T07:06:58;18.50;73.90
12233;DHT22;6179;51.748;8.728;2023-06-14T07:12:59;18.80;71.90
12233;DHT22;6179;51.748;8.728;2023-06-14T07:19:00;18.70;70.40
12233;DHT22;6179;51.748;8.728;2023-06-14T07:25:02;18.40;71.60
12233;DHT22;6179;51.748;8.728;2023-06-14T07:31:03;18.70;70.70
12233;DHT22;6179;51.748;8.728;2023-06-14T07:37:04;18.80;71.30
12233;DHT22;6179;51.748;8.728;2023-06-14T07:43:05;18.60;70.90
12233;DHT22;6179;51.748;8.728;2023-06-14T07:49:06;18.90;70.00
12233;DHT22;6179;51.748;8.728;2023-06-14T07:55:07;18.90;69.30
12233;DHT22;6179;51.748;8.728;2023-06-14T08:01:08;19.20;69.00
12233;DHT22;6179;51.748;8.728;2023-06-14T08:07:10;19.30;69.30
12233;DHT22;6179;51.748;8.728;2023-06-14T08:13:11;19.50;69.00
12233;DHT22;6179;51.748;8.728;2023-06-14T08:19:12;19.60;71.80
12233;DHT22;6179;51.748;8.728;2023-06-14T08:25:13;20.00;68.50
12233;DHT22;6179;51.748;8.728;2023-06-14T08:31:14;20.10;67.90
12233;DHT22;6179;51.748;8.728;2023-06-14T08:37:14;20.10;67.30
12233;DHT22;6179;51.748;8.728;2023-06-14T08:43:15;19.70;67.80
12233;DHT22;6179;51.748;8.728;2023-06-14T08:49:17;20.00;67.10
12233;DHT22;6179;51.748;8.728;2023-06-14T08:55:17;20.40;66.40
12233;DHT22;6179;51.748;8.728;2023-06-14T09:01:20;20.40;68.30
12233;DHT22;6179;51.748;8.728;2023-06-14T09:07:22;20.50;65.40
12233;DHT22;6179;51.748;8.728;2023-06-14T09:13:22;20.40;67.30
12233;DHT22;6179;51.748;8.728;2023-06-14T09:19:24;20.70;64.30
12233;DHT22;6179;51.748;8.728;2023-06-14T09:25:25;20.90;69.00
12233;DHT22;6179;51.748;8.728;2023-06-14T09:31:28;21.20;63.50
12233;DHT22;6179;51.748;8.728;2023-06-14T09:37:32;21.30;63.10
12233;DHT22;6179;51.748;8.728;2023-06-14T09:43:34;20.80;64.40
12233;DHT22;6179;51.748;8.728;2023-06-14T09:49:35;20.70;69.30
12233;DHT22;6179;51.748;8.728;2023-06-14T09:55:37;21.40;63.70
12233;DHT22;6179;51.748;8.728;2023-06-14T10:01:44;21.80;67.10
12233;DHT22;6179;51.748;8.728;2023-06-14T10:14:08;21.80;62.30
12233;DHT22;6179;51.748;8.728;2023-06-14T10:20:27;21.70;64.20
12233;DHT22;6179;51.748;8.728;2023-06-14T10:26:29;22.30;64.00
12233;DHT22;6179;51.748;8.728;2023-06-14T10:32:31;22.20;62.70
12233;DHT22;6179;51.748;8.728;2023-06-14T10:38:32;22.40;62.20
12233;DHT22;6179;51.748;8.728;2023-06-14T10:44:50;22.40;64.70
12233;DHT22;6179;51.748;8.728;2023-06-14T10:51:02;22.70;64.00
12233;DHT22;6179;51.748;8.728;2023-06-14T10:57:06;22.20;61.90
12233;DHT22;6179;51.748;8.728;2023-06-14T11:03:50;22.50;62.20
12233;DHT22;6179;51.748;8.728;2023-06-14T11:16:15;22.50;63.60
12233;DHT22;6179;51.748;8.728;2023-06-14T11:22:19;21.90;64.50
12233;DHT22;6179;51.748;8.728;2023-06-14T11:28:19;22.70;61.40
12233;DHT22;6179;51.748;8.728;2023-06-14T11:34:22;23.00;62.20
12233;DHT22;6179;51.748;8.728;2023-06-14T11:40:26;22.90;64.00
12233;DHT22;6179;51.748;8.728;2023-06-14T11:46:28;23.10;61.80
12233;DHT22;6179;51.748;8.728;2023-06-14T11:52:28;23.10;60.40
12233;DHT22;6179;51.748;8.728;2023-06-14T11:58:30;22.70;62.90
12233;DHT22;6179;51.748;8.728;2023-06-14T12:04:31;23.10;60.50
12233;DHT22;6179;51.748;8.728;2023-06-14T12:10:39;22.90;60.50
12233;DHT22;6179;51.748;8.728;2023-06-14T12:16:44;22.90;60.90
12233;DHT22;6179;51.748;8.728;2023-06-14T12:22:56;22.80;62.40
12233;DHT22;6179;51.748;8.728;2023-06-14T12:28:59;22.70;62.90
12233;DHT22;6179;51.748;8.728;2023-06-14T12:35:00;23.60;58.60
12233;DHT22;6179;51.748;8.728;2023-06-14T12:41:01;24.10;60.40
12233;DHT22;6179;51.748;8.728;2023-06-14T12:47:02;23.90;57.60
12233;DHT22;6179;51.748;8.728;2023-06-14T12:53:03;23.10;59.80
12233;DHT22;6179;51.748;8.728;2023-06-14T12:59:03;23.80;58.80
12233;DHT22;6179;51.748;8.728;2023-06-14T13:05:04;23.70;60.80
12233;DHT22;6179;51.748;8.728;2023-06-14T13:11:05;23.80;59.20
12233;DHT22;6179;51.748;8.728;2023-06-14T13:17:09;23.70;58.40
12233;DHT22;6179;51.748;8.728;2023-06-14T13:23:10;24.00;62.70
12233;DHT22;6179;51.748;8.728;2023-06-14T13:29:11;24.60;59.80
12233;DHT22;6179;51.748;8.728;2023-06-14T13:35:12;24.00;60.70
12233;DHT22;6179;51.748;8.728;2023-06-14T13:41:12;24.70;59.00
12233;DHT22;6179;51.748;8.728;2023-06-14T13:47:13;24.30;59.00
12233;DHT22;6179;51.748;8.728;2023-06-14T13:53:14;23.80;58.40
12233;DHT22;6179;51.748;8.728;2023-06-14T13:59:15;23.90;60.80
12233;DHT22;6179;51.748;8.728;2023-06-14T14:05:16;24.70;58.60
12233;DHT22;6179;51.748;8.728;2023-06-14T14:11:17;23.80;59.60
12233;DHT22;6179;51.748;8.728;2023-06-14T14:17:19;24.00;58.80
12233;DHT22;6179;51.748;8.728;2023-06-14T14:23:21;23.60;60.10
12233;DHT22;6179;51.748;8.728;2023-06-14T14:29:22;24.00;59.50
12233;DHT22;6179;51.748;8.728;2023-06-14T14:35:23;24.90;58.70
12233;DHT22;6179;51.748;8.728;2023-06-14T14:41:27;25.70;56.70
12233;DHT22;6179;51.748;8.728;2023-06-14T14:47:28;25.00;56.00
12233;DHT22;6179;51.748;8.728;2023-06-14T14:53:29;24.80;58.70
12233;DHT22;6179;51.748;8.728;2023-06-14T14:59:30;24.70;56.40
12233;DHT22;6179;51.748;8.728;2023-06-14T15:05:31;24.80;57.80
12233;DHT22;6179;51.748;8.728;2023-06-14T15:11:32;25.10;57.20
12233;DHT22;6179;51.748;8.728;2023-06-14T15:17:32;24.90;55.30
12233;DHT22;6179;51.748;8.728;2023-06-14T15:23:33;25.30;56.90
12233;DHT22;6179;51.748;8.728;2023-06-14T15:29:34;25.20;58.40
12233;DHT22;6179;51.748;8.728;2023-06-14T15:35:35;25.20;57.00
12233;DHT22;6179;51.748;8.728;2023-06-14T15:41:36;24.50;56.40
12233;DHT22;6179;51.748;8.728;2023-06-14T15:47:36;23.90;59.00
12233;DHT22;6179;51.748;8.728;2023-06-14T15:53:37;24.20;59.10
12233;DHT22;6179;51.748;8.728;2023-06-14T15:59:38;24.80;56.70
12233;DHT22;6179;51.748;8.728;2023-06-14T16:05:39;24.20;57.60
12233;DHT22;6179;51.748;8.728;2023-06-14T16:11:40;24.20;59.10
12233;DHT22;6179;51.748;8.728;2023-06-14T16:17:41;25.20;54.80
12233;DHT22;6179;51.748;8.728;2023-06-14T16:23:43;25.70;55.80
12233;DHT22;6179;51.748;8.728;2023-06-14T16:29:43;25.20;58.40
12233;DHT22;6179;51.748;8.728;2023-06-14T16:35:44;24.30;61.20
12233;DHT22;6179;51.748;8.728;2023-06-14T16:41:45;24.20;59.10
12233;DHT22;6179;51.748;8.728;2023-06-14T16:47:46;24.20;59.20
12233;DHT22;6179;51.748;8.728;2023-06-14T16:53:46;24.10;60.10
12233;DHT22;6179;51.748;8.728;2023-06-14T16:59:47;24.40;59.70
12233;DHT22;6179;51.748;8.728;2023-06-14T17:05:57;24.20;59.60
12233;DHT22;6179;51.748;8.728;2023-06-14T17:11:58;24.00;59.30
12233;DHT22;6179;51.748;8.728;2023-06-14T17:17:59;23.50;60.30
12233;DHT22;6179;51.748;8.728;2023-06-14T17:24:00;23.10;61.70
12233;DHT22;6179;51.748;8.728;2023-06-14T17:30:02;23.60;59.90
12233;DHT22;6179;51.748;8.728;2023-06-14T17:36:03;23.60;60.80
12233;DHT22;6179;51.748;8.728;2023-06-14T17:42:05;23.60;60.70
12233;DHT22;6179;51.748;8.728;2023-06-14T17:48:06;23.10;62.80
12233;DHT22;6179;51.748;8.728;2023-06-14T17:54:07;23.00;62.30
12233;DHT22;6179;51.748;8.728;2023-06-14T18:00:08;22.60;63.80
12233;DHT22;6179;51.748;8.728;2023-06-14T18:06:10;22.50;63.60
12233;DHT22;6179;51.748;8.728;2023-06-14T18:12:11;22.60;63.40
12233;DHT22;6179;51.748;8.728;2023-06-14T18:18:12;22.50;64.10
12233;DHT22;6179;51.748;8.728;2023-06-14T18:24:13;22.60;62.80
12233;DHT22;6179;51.748;8.728;2023-06-14T18:30:16;22.40;62.50
12233;DHT22;6179;51.748;8.728;2023-06-14T18:36:17;22.20;62.90
12233;DHT22;6179;51.748;8.728;2023-06-14T18:42:19;22.30;63.20
12233;DHT22;6179;51.748;8.728;2023-06-14T18:48:23;22.10;64.00
12233;DHT22;6179;51.748;8.728;2023-06-14T18:54:24;22.10;63.80
12233;DHT22;6179;51.748;8.728;2023-06-14T19:00:26;22.30;63.70
12233;DHT22;6179;51.748;8.728;2023-06-14T19:06:30;22.40;63.50
12233;DHT22;6179;51.748;8.728;2023-06-14T19:12:30;22.50;63.10
12233;DHT22;6179;51.748;8.728;2023-06-14T19:18:31;22.20;64.40
12233;DHT22;6179;51.748;8.728;2023-06-14T19:24:32;22.10;65.10
12233;DHT22;6179;51.748;8.728;2023-06-14T19:30:34;21.60;67.10
12233;DHT22;6179;51.748;8.728;2023-06-14T19:36:36;21.40;66.30
12233;DHT22;6179;51.748;8.728;2023-06-14T19:42:37;21.20;66.90
12233;DHT22;6179;51.748;8.728;2023-06-14T19:48:39;21.10;67.10
12233;DHT22;6179;51.748;8.728;2023-06-14T19:54:40;20.80;70.20
12233;DHT22;6179;51.748;8.728;2023-06-14T20:00:41;20.60;70.10
12233;DHT22;6179;51.748;8.728;2023-06-14T20:06:42;20.40;69.10
12233;DHT22;6179;51.748;8.728;2023-06-14T20:12:43;20.30;69.50
12233;DHT22;6179;51.748;8.728;2023-06-14T20:18:44;20.10;70.00
12233;DHT22;6179;51.748;8.728;2023-06-14T20:24:45;20.20;69.40
12233;DHT22;6179;51.748;8.728;2023-06-14T20:30:45;20.30;69.60
12233;DHT22;6179;51.748;8.728;2023-06-14T20:36:46;19.90;71.30
12233;DHT22;6179;51.748;8.728;2023-06-14T20:42:47;19.50;72.40
12233;DHT22;6179;51.748;8.728;2023-06-14T20:48:48;19.20;74.10
12233;DHT22;6179;51.748;8.728;2023-06-14T20:54:49;18.90;74.80
12233;DHT22;6179;51.748;8.728;2023-06-14T21:00:50;18.80;75.20
12233;DHT22;6179;51.748;8.728;2023-06-14T21:06:51;18.70;76.10
12233;DHT22;6179;51.748;8.728;2023-06-14T21:12:53;18.50;76.60
12233;DHT22;6179;51.748;8.728;2023-06-14T21:18:55;18.30;76.80
12233;DHT22;6179;51.748;8.728;2023-06-14T21:24:56;18.20;78.30
12233;DHT22;6179;51.748;8.728;2023-06-14T21:30:57;18.30;78.00
12233;DHT22;6179;51.748;8.728;2023-06-14T21:36:57;18.20;77.70
12233;DHT22;6179;51.748;8.728;2023-06-14T21:42:59;18.00;78.20
12233;DHT22;6179;51.748;8.728;2023-06-14T21:48:59;18.00;78.70
12233;DHT22;6179;51.748;8.728;2023-06-14T21:55:00;18.10;78.70
12233;DHT22;6179;51.748;8.728;2023-06-14T22:01:01;17.90;79.80
12233;DHT22;6179;51.748;8.728;2023-06-14T22:07:02;18.00;79.50
12233;DHT22;6179;51.748;8.728;2023-06-14T22:13:03;17.60;81.20
12233;DHT22;6179;51.748;8.728;2023-06-14T22:19:05;17.10;82.80
12233;DHT22;6179;51.748;8.728;2023-06-14T22:25:07;17.20;82.50
12233;DHT22;6179;51.748;8.728;2023-06-14T22:31:09;17.00;83.50
12233;DHT22;6179;51.748;8.728;2023-06-14T22:37:11;16.80;84.60
12233;DHT22;6179;51.748;8.728;2023-06-14T22:43:11;16.50;85.90
12233;DHT22;6179;51.748;8.728;2023-06-14T22:49:13;16.40;86.40
12233;DHT22;6179;51.748;8.728;2023-06-14T22:55:15;16.30;86.60
12233;DHT22;6179;51.748;8.728;2023-06-14T23:01:16;16.10;87.10
12233;DHT22;6179;51.748;8.728;2023-06-14T23:07:18;15.90;88.60
12233;DHT22;6179;51.748;8.728;2023-06-14T23:13:21;15.60;89.70
12233;DHT22;6179;51.748;8.728;2023-06-14T23:19:23;15.60;89.90
12233;DHT22;6179;51.748;8.728;2023-06-14T23:25:25;15.50;90.50
12233;DHT22;6179;51.748;8.728;2023-06-14T23:31:26;15.40;90.20
12233;DHT22;6179;51.748;8.728;2023-06-14T23:37:27;15.30;91.00
12233;DHT22;6179;51.748;8.728;2023-06-14T23:43:33;15.30;91.00
12233;DHT22;6179;51.748;8.728;2023-06-14T23:49:37;15.10;91.90
12233;DHT22;6179;51.748;8.728;2023-06-14T23:55:38;15.00;92.00
